Time;durP1;ratioP1;P1;durP2;ratioP2;P2;SDS_P1;SDS_P2;PMS_P1;PMS_P2;Temp;Humidity;BMP_temperature;BMP_pressure;BME280_temperature;BME280_humidity;BME280_pressure;Samples;Min_cycle;Max_cycle;Signal;HPM_P1;HPM_P2
2022/01/09 00:00:08;;;;;;;;;;;19.10;42.30;;;;;;5124100;27;19961;-62
2022/01/09 00:02:33;;;;;;;;;;;19.00;42.20;;;;;;5085886;28;19912;-62
2022/01/09 00:04:59;;;;;;;;;;;19.00;42.20;;;;;;5091622;28;19922;-62
2022/01/09 00:07:24;;;;;;;;;;;19.00;42.20;;;;;;5085513;28;19966;-63
2022/01/09 00:09:50;;;;;;;;;;;19.00;42.10;;;;;;5091496;28;19989;-62
2022/01/09 00:12:15;;;;;;;;;;;19.00;41.90;;;;;;5092352;28;20369;-62
2022/01/09 00:14:40;;;;;;;;;;;19.00;42.20;;;;;;5091177;28;20015;-62
2022/01/09 00:17:06;;;;;;;;;;;19.00;41.90;;;;;;5091442;28;19966;-62
2022/01/09 00:19:31;;;;;;;;;;;19.00;42.00;;;;;;5088321;28;19916;-63
2022/01/09 00:21:57;;;;;;;;;;;19.00;42.00;;;;;;5091363;28;19920;-62
2022/01/09 00:24:22;;;;;;;;;;;18.90;41.90;;;;;;5089841;28;19919;-62
2022/01/09 00:26:48;;;;;;;;;;;18.90;42.00;;;;;;5091793;28;19920;-62
2022/01/09 00:29:13;;;;;;;;;;;18.90;42.00;;;;;;5090691;28;19955;-62
2022/01/09 00:31:39;;;;;;;;;;;18.90;41.80;;;;;;5091347;28;19920;-62
2022/01/09 00:34:04;;;;;;;;;;;18.90;41.80;;;;;;5090040;28;19935;-62
2022/01/09 00:36:30;;;;;;;;;;;18.90;41.80;;;;;;5124610;27;19911;-62
2022/01/09 00:38:56;;;;;;;;;;;18.90;41.90;;;;;;5089596;28;20045;-62
2022/01/09 00:41:22;;;;;;;;;;;18.90;41.60;;;;;;5091546;28;20347;-62
2022/01/09 00:43:47;;;;;;;;;;;18.90;41.70;;;;;;5084658;28;19912;-62
2022/01/09 00:46:13;;;;;;;;;;;18.90;41.70;;;;;;5091649;28;19963;-62
2022/01/09 00:48:38;;;;;;;;;;;18.90;41.70;;;;;;5086707;28;20292;-62
2022/01/09 00:51:03;;;;;;;;;;;18.90;41.90;;;;;;5091685;28;19908;-62
2022/01/09 00:53:29;;;;;;;;;;;18.90;41.70;;;;;;5090773;28;19912;-63
2022/01/09 00:55:54;;;;;;;;;;;18.80;41.80;;;;;;5085787;28;20331;-62
2022/01/09 00:58:20;;;;;;;;;;;18.80;41.50;;;;;;5091833;28;19908;-62
2022/01/09 01:00:45;;;;;;;;;;;18.80;41.70;;;;;;5091652;28;19938;-62
2022/01/09 01:03:11;;;;;;;;;;;18.80;41.70;;;;;;5092463;28;19959;-62
2022/01/09 01:05:36;;;;;;;;;;;18.80;41.80;;;;;;5088858;28;19957;-62
2022/01/09 01:08:02;;;;;;;;;;;18.80;41.60;;;;;;5090265;28;19922;-62
2022/01/09 01:10:27;;;;;;;;;;;18.80;41.80;;;;;;5091361;28;19913;-62
2022/01/09 01:12:53;;;;;;;;;;;18.80;41.70;;;;;;5090989;28;19915;-62
2022/01/09 01:15:18;;;;;;;;;;;18.80;41.60;;;;;;5091042;28;19920;-62
2022/01/09 01:17:45;;;;;;;;;;;18.80;41.70;;;;;;5090827;28;20506;-63
2022/01/09 01:20:11;;;;;;;;;;;18.80;41.80;;;;;;5091368;28;20015;-62
2022/01/09 01:22:37;;;;;;;;;;;18.80;41.70;;;;;;5089628;28;19912;-62
2022/01/09 01:25:04;;;;;;;;;;;18.80;41.70;;;;;;5089419;28;19912;-62
2022/01/09 01:27:29;;;;;;;;;;;18.70;41.60;;;;;;5091847;28;20364;-62
2022/01/09 01:29:55;;;;;;;;;;;18.70;41.60;;;;;;5127209;27;19912;-62
2022/01/09 01:32:22;;;;;;;;;;;18.70;41.60;;;;;;5092932;28;20339;-62
2022/01/09 01:34:47;;;;;;;;;;;18.70;41.70;;;;;;5092795;28;19914;-62
2022/01/09 01:37:13;;;;;;;;;;;18.70;41.50;;;;;;5095051;28;19999;-62
2022/01/09 01:39:38;;;;;;;;;;;18.70;41.50;;;;;;5096130;28;19912;-62
2022/01/09 01:42:04;;;;;;;;;;;18.70;41.60;;;;;;5095418;28;19912;-62
2022/01/09 01:44:39;;;;;;;;;;;18.70;41.60;;;;;;5095626;28;19937;-62
2022/01/09 01:47:04;;;;;;;;;;;18.70;41.60;;;;;;5095130;28;19908;-62
2022/01/09 01:49:31;;;;;;;;;;;18.70;41.40;;;;;;5093869;28;19973;-62
2022/01/09 01:51:57;;;;;;;;;;;18.70;41.60;;;;;;5096360;28;19916;-62
2022/01/09 01:54:24;;;;;;;;;;;18.70;41.60;;;;;;5094707;28;19912;-62
2022/01/09 01:56:50;;;;;;;;;;;18.70;41.60;;;;;;5095197;28;20017;-62
2022/01/09 01:59:15;;;;;;;;;;;18.70;41.70;;;;;;5094819;28;20387;-62
2022/01/09 02:01:41;;;;;;;;;;;18.70;41.70;;;;;;5095341;28;20364;-62
2022/01/09 02:04:06;;;;;;;;;;;18.70;41.60;;;;;;5094108;28;20388;-62
2022/01/09 02:06:35;;;;;;;;;;;18.70;41.60;;;;;;5093416;28;20287;-62
2022/01/09 02:09:01;;;;;;;;;;;18.70;41.60;;;;;;5126337;27;20292;-62
2022/01/09 02:11:26;;;;;;;;;;;18.60;41.60;;;;;;5093694;28;19912;-62
2022/01/09 02:13:52;;;;;;;;;;;18.60;41.60;;;;;;5094540;28;19965;-62
2022/01/09 02:16:18;;;;;;;;;;;18.60;41.60;;;;;;5094469;28;19963;-62
2022/01/09 02:18:46;;;;;;;;;;;18.70;41.60;;;;;;5091022;28;19926;-62
2022/01/09 02:21:13;;;;;;;;;;;18.60;41.70;;;;;;5091706;28;19916;-62
2022/01/09 02:23:40;;;;;;;;;;;18.60;41.50;;;;;;5093490;28;20033;-62
2022/01/09 02:26:06;;;;;;;;;;;18.60;41.50;;;;;;5092789;28;20421;-62
2022/01/09 02:28:31;;;;;;;;;;;18.60;41.60;;;;;;5093934;28;19908;-62
2022/01/09 02:30:57;;;;;;;;;;;18.70;41.50;;;;;;5093430;28;19924;-62
2022/01/09 02:33:22;;;;;;;;;;;18.80;41.30;;;;;;5094088;28;20019;-62
2022/01/09 02:35:51;;;;;;;;;;;19.00;41.00;;;;;;5094029;28;19923;-62
2022/01/09 02:38:17;;;;;;;;;;;19.20;40.60;;;;;;5090553;28;19943;-62
2022/01/09 02:40:43;;;;;;;;;;;19.40;40.20;;;;;;5126865;27;19920;-62
2022/01/09 02:43:08;;;;;;;;;;;19.60;39.70;;;;;;5089171;28;20541;-62
2022/01/09 02:45:33;;;;;;;;;;;19.80;39.40;;;;;;5084254;28;19914;-63
2022/01/09 02:48:01;;;;;;;;;;;19.90;39.00;;;;;;5093692;28;19922;-63
2022/01/09 02:52:59;;;;;;;;;;;20.10;38.70;;;;;;5093318;28;20465;-62
2022/01/09 02:55:24;;;;;;;;;;;20.10;38.50;;;;;;5089707;28;19912;-62
2022/01/09 02:57:50;;;;;;;;;;;20.20;38.30;;;;;;5091703;28;19916;-62
2022/01/09 03:00:17;;;;;;;;;;;20.20;38.30;;;;;;5093765;28;20399;-62
2022/01/09 03:02:42;;;;;;;;;;;20.30;38.30;;;;;;5093393;28;19912;-62
2022/01/09 03:05:09;;;;;;;;;;;20.30;38.20;;;;;;5088622;28;19923;-62
2022/01/09 03:07:34;;;;;;;;;;;20.30;38.20;;;;;;5132041;27;19916;-62
2022/01/09 03:10:00;;;;;;;;;;;20.30;38.20;;;;;;5093366;28;19916;-62
2022/01/09 03:12:25;;;;;;;;;;;20.30;38.90;;;;;;5092036;28;20383;-62
2022/01/09 03:14:51;;;;;;;;;;;20.20;38.20;;;;;;5093410;28;19920;-62
2022/01/09 03:17:16;;;;;;;;;;;20.20;38.30;;;;;;5092481;28;19919;-62
2022/01/09 03:19:41;;;;;;;;;;;20.20;38.40;;;;;;5092511;28;19920;-62
2022/01/09 03:22:07;;;;;;;;;;;20.10;38.40;;;;;;5090947;28;19959;-63
2022/01/09 03:24:32;;;;;;;;;;;20.10;38.70;;;;;;5091654;28;19951;-63
2022/01/09 03:26:58;;;;;;;;;;;20.00;38.80;;;;;;5092928;28;20398;-63
2022/01/09 03:29:23;;;;;;;;;;;19.90;39.50;;;;;;5092916;28;20287;-62
2022/01/09 03:31:49;;;;;;;;;;;19.90;39.10;;;;;;5091365;28;19920;-62
2022/01/09 03:34:14;;;;;;;;;;;19.80;39.30;;;;;;5092118;28;20003;-62
2022/01/09 03:36:40;;;;;;;;;;;19.70;39.30;;;;;;5091568;28;19919;-62
2022/01/09 03:39:05;;;;;;;;;;;19.60;39.50;;;;;;5090418;28;20364;-62
2022/01/09 03:41:31;;;;;;;;;;;19.50;39.50;;;;;;5091786;28;20384;-62
2022/01/09 03:43:56;;;;;;;;;;;19.60;39.70;;;;;;5121471;27;19916;-62
2022/01/09 03:46:22;;;;;;;;;;;19.50;39.70;;;;;;5085335;28;19959;-62
2022/01/09 03:48:47;;;;;;;;;;;19.50;39.50;;;;;;5092574;28;19923;-62
2022/01/09 03:51:12;;;;;;;;;;;19.60;39.60;;;;;;5088939;28;19927;-62
2022/01/09 03:53:39;;;;;;;;;;;19.60;39.50;;;;;;5094884;28;19934;-62
2022/01/09 03:56:04;;;;;;;;;;;19.60;39.40;;;;;;5092294;28;19916;-61
2022/01/09 03:58:30;;;;;;;;;;;19.60;39.30;;;;;;5090629;28;19961;-62
2022/01/09 04:00:55;;;;;;;;;;;19.60;39.40;;;;;;5092893;28;19997;-62
2022/01/09 04:03:21;;;;;;;;;;;19.50;39.30;;;;;;5092205;28;19983;-62
2022/01/09 04:05:46;;;;;;;;;;;19.60;39.60;;;;;;5091465;28;19923;-62
2022/01/09 04:08:12;;;;;;;;;;;19.50;39.50;;;;;;5091568;28;19947;-62
2022/01/09 04:10:42;;;;;;;;;;;19.50;39.40;;;;;;5091596;28;19923;-62
2022/01/09 04:13:08;;;;;;;;;;;19.50;39.40;;;;;;5092708;28;19916;-62
2022/01/09 04:15:33;;;;;;;;;;;19.50;39.30;;;;;;5092302;28;20208;-63
2022/01/09 04:18:00;;;;;;;;;;;19.60;39.50;;;;;;5090758;28;19970;-62
2022/01/09 04:20:26;;;;;;;;;;;19.50;39.50;;;;;;5086275;28;20326;-62
2022/01/09 04:22:52;;;;;;;;;;;19.50;39.60;;;;;;5123866;27;19957;-62
2022/01/09 04:25:18;;;;;;;;;;;19.50;39.60;;;;;;5091545;28;19916;-62
2022/01/09 04:27:43;;;;;;;;;;;19.50;39.70;;;;;;5091825;28;20361;-62
2022/01/09 04:30:09;;;;;;;;;;;19.50;39.70;;;;;;5090351;28;19912;-62
2022/01/09 04:32:35;;;;;;;;;;;19.50;39.70;;;;;;5089785;28;19965;-62
2022/01/09 04:35:00;;;;;;;;;;;19.50;39.60;;;;;;5090812;28;19935;-62
2022/01/09 04:37:26;;;;;;;;;;;19.50;39.60;;;;;;5089051;28;19959;-62
2022/01/09 04:39:52;;;;;;;;;;;19.50;39.60;;;;;;5084763;28;20391;-62
2022/01/09 04:42:18;;;;;;;;;;;19.50;39.40;;;;;;5091690;28;19923;-62
2022/01/09 04:44:44;;;;;;;;;;;19.60;39.50;;;;;;5084056;28;19913;-62
2022/01/09 04:47:13;;;;;;;;;;;19.60;39.40;;;;;;5089491;28;20011;-62
2022/01/09 04:49:41;;;;;;;;;;;19.60;39.40;;;;;;5096811;28;19912;-62
2022/01/09 04:52:10;;;;;;;;;;;19.70;39.50;;;;;;5093170;28;19951;-62
2022/01/09 04:54:35;;;;;;;;;;;19.70;39.40;;;;;;5090753;28;20387;-62
2022/01/09 04:57:02;;;;;;;;;;;19.70;39.40;;;;;;5090843;28;19964;-62
2022/01/09 04:59:30;;;;;;;;;;;19.70;39.40;;;;;;5091264;28;20016;-62
2022/01/09 05:01:55;;;;;;;;;;;19.70;39.30;;;;;;5089463;28;20253;-62
2022/01/09 05:04:21;;;;;;;;;;;19.70;39.40;;;;;;5090107;28;19919;-62
2022/01/09 05:06:46;;;;;;;;;;;19.70;39.40;;;;;;5091244;28;20321;-62
2022/01/09 05:09:12;;;;;;;;;;;19.70;39.30;;;;;;5081796;28;19981;-62
2022/01/09 05:11:37;;;;;;;;;;;19.70;39.30;;;;;;5090775;28;19964;-62
2022/01/09 05:14:03;;;;;;;;;;;19.70;39.30;;;;;;5090660;28;19920;-62
2022/01/09 05:16:28;;;;;;;;;;;19.70;39.20;;;;;;5090683;28;19997;-62
2022/01/09 05:19:01;;;;;;;;;;;19.70;39.20;;;;;;5089993;28;19908;-62
2022/01/09 05:21:27;;;;;;;;;;;19.70;39.20;;;;;;5105957;28;19963;-62
2022/01/09 05:23:52;;;;;;;;;;;19.70;39.20;;;;;;5089649;28;19952;-62
2022/01/09 05:26:17;;;;;;;;;;;19.70;39.20;;;;;;5087254;28;19977;-62
2022/01/09 05:28:43;;;;;;;;;;;19.70;39.30;;;;;;5090877;28;19919;-62
2022/01/09 05:31:08;;;;;;;;;;;19.60;39.30;;;;;;5090927;28;19920;-62
2022/01/09 05:33:34;;;;;;;;;;;19.70;39.40;;;;;;5091024;28;19912;-62
2022/01/09 05:35:59;;;;;;;;;;;19.60;39.30;;;;;;5090814;28;20345;-62
2022/01/09 05:38:25;;;;;;;;;;;19.60;39.30;;;;;;5089983;28;20033;-62
2022/01/09 05:40:50;;;;;;;;;;;19.60;39.30;;;;;;5091069;28;19916;-62
2022/01/09 05:43:16;;;;;;;;;;;19.60;39.30;;;;;;5084248;28;19913;-62
2022/01/09 05:45:42;;;;;;;;;;;19.60;39.40;;;;;;5084481;28;19955;-62
2022/01/09 05:48:07;;;;;;;;;;;19.60;39.40;;;;;;5090615;28;19962;-62
2022/01/09 05:50:33;;;;;;;;;;;19.60;39.40;;;;;;5091004;28;19916;-62
2022/01/09 05:52:58;;;;;;;;;;;19.60;39.40;;;;;;5088899;28;19956;-62
2022/01/09 05:55:24;;;;;;;;;;;19.60;39.40;;;;;;5123211;27;19958;-62
2022/01/09 05:57:49;;;;;;;;;;;19.60;39.40;;;;;;5090065;28;19947;-62
2022/01/09 06:00:15;;;;;;;;;;;19.60;39.40;;;;;;5089248;28;19916;-62
2022/01/09 06:02:41;;;;;;;;;;;19.60;39.40;;;;;;5089571;28;19935;-62
2022/01/09 06:05:07;;;;;;;;;;;19.60;39.40;;;;;;5088718;28;19912;-62
2022/01/09 06:07:32;;;;;;;;;;;19.60;39.40;;;;;;5089777;28;19912;-62
2022/01/09 06:09:58;;;;;;;;;;;19.70;39.40;;;;;;5090423;28;19916;-62
2022/01/09 06:12:23;;;;;;;;;;;19.70;39.30;;;;;;5086257;28;19920;-62
2022/01/09 06:14:49;;;;;;;;;;;19.60;39.30;;;;;;5092825;28;19920;-62
2022/01/09 06:17:14;;;;;;;;;;;19.70;39.30;;;;;;5089674;28;19912;-62
2022/01/09 06:19:40;;;;;;;;;;;19.60;39.30;;;;;;5090391;28;19924;-62
2022/01/09 06:22:05;;;;;;;;;;;19.70;39.30;;;;;;5093247;28;19912;-62
2022/01/09 06:24:30;;;;;;;;;;;19.70;39.30;;;;;;5093811;28;19985;-62
2022/01/09 06:26:56;;;;;;;;;;;19.60;39.20;;;;;;5094560;28;20002;-62
2022/01/09 06:29:21;;;;;;;;;;;19.70;39.30;;;;;;5094198;28;20365;-62
2022/01/09 06:31:47;;;;;;;;;;;19.60;39.10;;;;;;5094535;28;20364;-62
2022/01/09 06:34:13;;;;;;;;;;;19.70;39.20;;;;;;5092735;28;19912;-62
2022/01/09 06:36:39;;;;;;;;;;;19.70;39.20;;;;;;5094378;28;19912;-62
2022/01/09 06:39:05;;;;;;;;;;;19.70;39.20;;;;;;5093339;28;19915;-62
2022/01/09 06:41:31;;;;;;;;;;;19.70;39.10;;;;;;5092921;28;20015;-62
2022/01/09 06:43:57;;;;;;;;;;;19.70;39.10;;;;;;5093975;28;19908;-62
2022/01/09 06:46:22;;;;;;;;;;;19.70;39.00;;;;;;5087281;28;19969;-62
2022/01/09 06:48:47;;;;;;;;;;;19.70;39.10;;;;;;5093751;28;19923;-62
2022/01/09 06:51:13;;;;;;;;;;;19.70;39.00;;;;;;5090211;28;20024;-62
2022/01/09 06:53:38;;;;;;;;;;;19.70;39.00;;;;;;5091319;28;19912;-62
2022/01/09 06:56:04;;;;;;;;;;;19.70;39.10;;;;;;5090596;28;20003;-62
2022/01/09 06:58:30;;;;;;;;;;;19.70;39.10;;;;;;5104652;27;19959;-62
2022/01/09 07:00:55;;;;;;;;;;;19.70;39.10;;;;;;5087786;28;20354;-62
2022/01/09 07:03:21;;;;;;;;;;;19.70;39.10;;;;;;5092677;28;19912;-62
2022/01/09 07:05:46;;;;;;;;;;;19.60;39.00;;;;;;5085203;28;19919;-62
2022/01/09 07:08:11;;;;;;;;;;;19.70;39.00;;;;;;5087127;28;19956;-62
2022/01/09 07:10:37;;;;;;;;;;;19.70;39.00;;;;;;5092926;28;19916;-62
2022/01/09 07:13:03;;;;;;;;;;;19.70;39.00;;;;;;5092911;28;19981;-62
2022/01/09 07:15:28;;;;;;;;;;;19.70;38.90;;;;;;5092150;28;19973;-62
2022/01/09 07:17:53;;;;;;;;;;;19.70;38.90;;;;;;5093019;28;19913;-62
2022/01/09 07:20:19;;;;;;;;;;;19.70;38.90;;;;;;5092070;28;19924;-62
2022/01/09 07:22:44;;;;;;;;;;;19.70;38.90;;;;;;5092656;28;19987;-62
2022/01/09 07:25:10;;;;;;;;;;;19.70;38.80;;;;;;5091611;28;19920;-62
2022/01/09 07:27:35;;;;;;;;;;;19.70;38.80;;;;;;5092597;28;19916;-62
2022/01/09 07:30:01;;;;;;;;;;;19.70;38.90;;;;;;5091440;28;20015;-62
2022/01/09 07:32:28;;;;;;;;;;;19.70;38.80;;;;;;5091367;28;19913;-63
2022/01/09 07:34:57;;;;;;;;;;;19.70;38.80;;;;;;5093122;28;19927;-63
2022/01/09 07:37:22;;;;;;;;;;;19.70;38.80;;;;;;5090241;28;20284;-62
2022/01/09 07:39:50;;;;;;;;;;;19.70;38.80;;;;;;5073664;28;19945;-62
2022/01/09 07:42:15;;;;;;;;;;;19.70;38.70;;;;;;5092728;28;19919;-63
2022/01/09 07:44:41;;;;;;;;;;;19.70;38.70;;;;;;5087576;28;19916;-63
2022/01/09 07:47:06;;;;;;;;;;;19.60;38.70;;;;;;5092038;28;19912;-62
2022/01/09 07:49:31;;;;;;;;;;;19.70;38.80;;;;;;5124305;27;19912;-63
2022/01/09 07:51:57;;;;;;;;;;;19.70;38.70;;;;;;5092608;28;19916;-62
2022/01/09 07:54:22;;;;;;;;;;;19.70;38.70;;;;;;5091179;28;19973;-62
2022/01/09 07:56:48;;;;;;;;;;;19.70;38.70;;;;;;5092100;28;19916;-62
2022/01/09 07:59:13;;;;;;;;;;;19.70;38.70;;;;;;5080566;28;19981;-62
2022/01/09 08:01:39;;;;;;;;;;;19.80;38.80;;;;;;5090913;28;19924;-62
2022/01/09 08:04:04;;;;;;;;;;;19.70;38.70;;;;;;5085752;28;19912;-62
2022/01/09 08:06:30;;;;;;;;;;;19.70;38.70;;;;;;5092305;28;19920;-62
2022/01/09 08:08:55;;;;;;;;;;;19.70;38.70;;;;;;5091178;28;19951;-62
2022/01/09 08:11:22;;;;;;;;;;;19.70;38.70;;;;;;5091058;28;19920;-62
2022/01/09 08:13:48;;;;;;;;;;;19.70;38.70;;;;;;5089956;28;19953;-62
2022/01/09 08:16:15;;;;;;;;;;;19.70;38.70;;;;;;5091694;28;19924;-62
2022/01/09 08:18:40;;;;;;;;;;;19.70;38.70;;;;;;5124679;27;19912;-62
2022/01/09 08:21:07;;;;;;;;;;;19.70;38.80;;;;;;5091259;28;21362;-62
2022/01/09 08:23:33;;;;;;;;;;;19.70;38.70;;;;;;5090457;28;20248;-62
2022/01/09 08:25:58;;;;;;;;;;;19.70;38.70;;;;;;5091983;28;19974;-62
2022/01/09 08:28:24;;;;;;;;;;;19.70;38.70;;;;;;5091186;28;19912;-62
2022/01/09 08:30:49;;;;;;;;;;;19.70;38.80;;;;;;5088030;28;19920;-62
2022/01/09 08:33:14;;;;;;;;;;;19.70;38.80;;;;;;5089336;28;20368;-63
2022/01/09 08:35:40;;;;;;;;;;;19.70;38.70;;;;;;5123665;27;20387;-62
2022/01/09 08:38:05;;;;;;;;;;;19.70;38.70;;;;;;5090227;28;19916;-62
2022/01/09 08:40:31;;;;;;;;;;;19.70;38.70;;;;;;5091861;28;19916;-62
2022/01/09 08:42:56;;;;;;;;;;;19.70;38.70;;;;;;5091732;28;19991;-62
2022/01/09 08:45:23;;;;;;;;;;;19.70;38.70;;;;;;5089323;28;19949;-62
2022/01/09 08:47:49;;;;;;;;;;;19.70;38.70;;;;;;5085889;28;19920;-62
2022/01/09 08:50:14;;;;;;;;;;;19.70;38.70;;;;;;5092110;28;19953;-62
2022/01/09 08:52:40;;;;;;;;;;;19.70;38.70;;;;;;5091242;28;19983;-62
2022/01/09 08:55:05;;;;;;;;;;;19.70;38.70;;;;;;5091357;28;19999;-62
2022/01/09 08:57:31;;;;;;;;;;;19.70;38.70;;;;;;5091641;28;19915;-62
2022/01/09 08:59:56;;;;;;;;;;;19.70;38.70;;;;;;5091680;28;19912;-62
2022/01/09 09:02:22;;;;;;;;;;;19.70;38.60;;;;;;5091553;28;19957;-62
2022/01/09 09:04:47;;;;;;;;;;;19.70;38.70;;;;;;5090745;28;19951;-62
2022/01/09 09:07:14;;;;;;;;;;;19.70;38.70;;;;;;5090083;28;19912;-62
2022/01/09 09:09:40;;;;;;;;;;;19.70;38.60;;;;;;5087001;28;19912;-62
2022/01/09 09:12:05;;;;;;;;;;;19.70;38.60;;;;;;5094187;28;19977;-62
2022/01/09 09:14:31;;;;;;;;;;;19.70;38.70;;;;;;5091479;28;19938;-62
2022/01/09 09:16:56;;;;;;;;;;;19.70;38.60;;;;;;5091215;28;20002;-62
2022/01/09 09:19:22;;;;;;;;;;;19.70;38.50;;;;;;5085787;28;19919;-62
2022/01/09 09:21:47;;;;;;;;;;;19.70;38.50;;;;;;5090120;28;19931;-62
2022/01/09 09:24:13;;;;;;;;;;;19.80;38.60;;;;;;5089064;28;19963;-62
2022/01/09 09:26:38;;;;;;;;;;;19.80;38.60;;;;;;5091005;28;19916;-62
2022/01/09 09:29:05;;;;;;;;;;;19.80;38.60;;;;;;5090516;28;20177;-62
2022/01/09 09:31:31;;;;;;;;;;;19.80;38.60;;;;;;5086263;28;19916;-62
2022/01/09 09:33:56;;;;;;;;;;;19.80;38.70;;;;;;5089866;28;19915;-62
2022/01/09 09:36:24;;;;;;;;;;;19.80;38.70;;;;;;5087965;28;19923;-62
2022/01/09 09:38:49;;;;;;;;;;;19.80;38.70;;;;;;5085450;28;19927;-62
2022/01/09 09:41:15;;;;;;;;;;;19.80;38.70;;;;;;5091454;28;20268;-62
2022/01/09 09:43:40;;;;;;;;;;;19.80;38.70;;;;;;5091350;28;19919;-62
2022/01/09 09:46:06;;;;;;;;;;;19.80;38.70;;;;;;5091269;28;19908;-62
2022/01/09 09:48:31;;;;;;;;;;;19.80;38.80;;;;;;5092696;28;19908;-62
2022/01/09 09:50:57;;;;;;;;;;;19.80;38.80;;;;;;5093256;28;19935;-62
2022/01/09 09:53:23;;;;;;;;;;;19.80;38.80;;;;;;5091559;28;19912;-62
2022/01/09 09:55:51;;;;;;;;;;;19.80;38.80;;;;;;5093119;28;19912;-62
2022/01/09 09:58:17;;;;;;;;;;;19.80;38.80;;;;;;5086220;28;19908;-62
2022/01/09 10:00:50;;;;;;;;;;;19.80;38.80;;;;;;5094775;28;20334;-62
2022/01/09 10:03:16;;;;;;;;;;;19.80;38.80;;;;;;5091577;28;19955;-62
2022/01/09 10:05:41;;;;;;;;;;;19.80;38.90;;;;;;5089972;28;19962;-62
2022/01/09 10:08:07;;;;;;;;;;;19.70;38.80;;;;;;5104662;28;19916;-62
2022/01/09 10:10:34;;;;;;;;;;;19.80;38.90;;;;;;5100774;28;20547;-62
2022/01/09 10:13:06;;;;;;;;;;;19.80;38.90;;;;;;5099628;28;19908;-62
2022/01/09 10:15:41;;;;;;;;;;;19.80;38.90;;;;;;5127132;27;19916;-62
2022/01/09 10:18:08;;;;;;;;;;;19.70;38.80;;;;;;5088633;28;20396;-62
2022/01/09 10:20:33;;;;;;;;;;;19.70;38.90;;;;;;5093770;28;20402;-62
2022/01/09 10:22:59;;;;;;;;;;;19.70;38.90;;;;;;5090030;28;19938;-62
2022/01/09 10:25:30;;;;;;;;;;;19.70;38.90;;;;;;5091538;28;19927;-62
2022/01/09 10:27:55;;;;;;;;;;;19.80;39.00;;;;;;5092208;28;20334;-62
2022/01/09 10:30:22;;;;;;;;;;;19.70;39.00;;;;;;5094309;28;19908;-63
2022/01/09 10:32:47;;;;;;;;;;;19.80;39.10;;;;;;5094098;28;19944;-63
2022/01/09 10:35:14;;;;;;;;;;;19.70;39.00;;;;;;5095922;28;20393;-63
2022/01/09 10:37:40;;;;;;;;;;;19.70;39.00;;;;;;5111926;28;19918;-62
2022/01/09 10:40:08;;;;;;;;;;;19.70;39.70;;;;;;5097190;28;20284;-62
2022/01/09 10:42:33;;;;;;;;;;;19.70;39.10;;;;;;5093536;28;19927;-62
2022/01/09 10:45:14;;;;;;;;;;;19.70;39.10;;;;;;5094140;28;19908;-62
2022/01/09 10:47:39;;;;;;;;;;;19.70;39.10;;;;;;5087126;28;19912;-62
2022/01/09 10:50:05;;;;;;;;;;;19.70;39.10;;;;;;5089910;28;19920;-62
2022/01/09 10:52:36;;;;;;;;;;;19.70;39.10;;;;;;5106964;28;19913;-62
2022/01/09 10:55:06;;;;;;;;;;;19.70;39.10;;;;;;5088308;28;19912;-62
2022/01/09 10:57:36;;;;;;;;;;;19.70;39.10;;;;;;5093595;28;19969;-62
2022/01/09 11:00:13;;;;;;;;;;;19.70;39.10;;;;;;5089662;28;19916;-62
2022/01/09 11:02:38;;;;;;;;;;;19.70;39.10;;;;;;5092761;28;19941;-62
2022/01/09 11:05:04;;;;;;;;;;;19.70;39.10;;;;;;5126427;27;19950;-62
2022/01/09 11:07:29;;;;;;;;;;;19.70;39.00;;;;;;5092762;28;19919;-62
2022/01/09 11:09:56;;;;;;;;;;;19.70;39.00;;;;;;5090848;28;19938;-62
2022/01/09 11:12:23;;;;;;;;;;;19.70;39.00;;;;;;5093355;28;19909;-63
2022/01/09 11:14:49;;;;;;;;;;;19.70;39.10;;;;;;5093183;28;19920;-62
2022/01/09 11:17:18;;;;;;;;;;;19.80;39.10;;;;;;5093232;28;19912;-62
2022/01/09 11:19:43;;;;;;;;;;;19.80;39.10;;;;;;5108927;28;19912;-62
2022/01/09 11:22:10;;;;;;;;;;;19.70;39.00;;;;;;5091442;28;19956;-62
2022/01/09 11:24:55;;;;;;;;;;;19.80;39.00;;;;;;5093094;28;20012;-62
2022/01/09 11:27:23;;;;;;;;;;;19.80;39.00;;;;;;5099698;28;19914;-62
2022/01/09 11:30:09;;;;;;;;;;;19.80;39.00;;;;;;5101281;28;20322;-62
2022/01/09 11:32:41;;;;;;;;;;;19.80;39.00;;;;;;5125608;27;19908;-63
2022/01/09 11:35:14;;;;;;;;;;;19.80;39.00;;;;;;5092047;28;19991;-62
2022/01/09 11:37:52;;;;;;;;;;;19.80;39.00;;;;;;5082725;28;19912;-62
2022/01/09 11:40:21;;;;;;;;;;;19.80;39.20;;;;;;5092257;28;19923;-62
2022/01/09 11:43:05;;;;;;;;;;;19.80;39.10;;;;;;5092872;28;19953;-62
2022/01/09 11:45:40;;;;;;;;;;;19.90;39.00;;;;;;5088097;28;20003;-63
2022/01/09 11:48:06;;;;;;;;;;;20.20;38.90;;;;;;5088859;28;19951;-63
2022/01/09 11:50:31;;;;;;;;;;;20.30;38.70;;;;;;5092300;28;20344;-63
2022/01/09 11:52:58;;;;;;;;;;;20.40;38.70;;;;;;5090285;28;20006;-63
2022/01/09 11:55:37;;;;;;;;;;;20.60;38.70;;;;;;5137508;27;19961;-63
2022/01/09 11:58:06;;;;;;;;;;;20.70;38.60;;;;;;5116148;27;19909;-63
2022/01/09 12:00:33;;;;;;;;;;;20.80;38.50;;;;;;5092099;28;20277;-63
2022/01/09 12:02:58;;;;;;;;;;;20.80;38.40;;;;;;5124509;27;19922;-63
2022/01/09 12:05:24;;;;;;;;;;;20.90;38.30;;;;;;5125287;27;19908;-63
2022/01/09 12:07:53;;;;;;;;;;;20.90;38.40;;;;;;5102325;28;19908;-63
2022/01/09 12:10:22;;;;;;;;;;;20.90;38.20;;;;;;5092537;28;19908;-63
2022/01/09 12:12:48;;;;;;;;;;;21.00;38.30;;;;;;5092394;28;20391;-63
2022/01/09 12:15:14;;;;;;;;;;;21.00;38.30;;;;;;5125062;27;19920;-63
2022/01/09 12:17:40;;;;;;;;;;;21.00;38.20;;;;;;5091212;28;19908;-63
2022/01/09 12:20:09;;;;;;;;;;;21.00;38.20;;;;;;5102886;28;20287;-63
2022/01/09 12:22:41;;;;;;;;;;;21.10;38.20;;;;;;5097842;27;19916;-63
2022/01/09 12:25:07;;;;;;;;;;;21.10;38.20;;;;;;5090956;28;19970;-63
2022/01/09 12:27:35;;;;;;;;;;;21.20;38.30;;;;;;5123176;27;19958;-63
2022/01/09 12:30:04;;;;;;;;;;;21.20;38.20;;;;;;5091901;28;19919;-63
2022/01/09 12:32:43;;;;;;;;;;;21.20;38.20;;;;;;5089692;28;19999;-63
2022/01/09 12:35:18;;;;;;;;;;;21.20;38.20;;;;;;5078629;28;20014;-62
2022/01/09 12:37:47;;;;;;;;;;;21.20;38.20;;;;;;5090342;28;19965;-63
2022/01/09 12:40:16;;;;;;;;;;;21.20;38.20;;;;;;5091654;28;20335;-63
2022/01/09 12:42:43;;;;;;;;;;;21.20;38.20;;;;;;5090243;28;19943;-63
2022/01/09 12:45:09;;;;;;;;;;;21.20;38.20;;;;;;5090305;28;19923;-63
2022/01/09 12:47:38;;;;;;;;;;;21.30;38.30;;;;;;5090760;28;19916;-63
2022/01/09 12:50:03;;;;;;;;;;;21.30;38.20;;;;;;5089381;28;19916;-63
2022/01/09 12:52:29;;;;;;;;;;;21.30;38.20;;;;;;5089841;28;19915;-64
2022/01/09 12:55:07;;;;;;;;;;;21.30;38.20;;;;;;5090291;28;19927;-63
2022/01/09 12:57:53;;;;;;;;;;;21.30;38.20;;;;;;5090765;28;19916;-63
2022/01/09 13:00:28;;;;;;;;;;;21.40;38.30;;;;;;5088025;28;20382;-63
2022/01/09 13:02:54;;;;;;;;;;;21.40;38.30;;;;;;5089263;28;19922;-63
2022/01/09 13:05:26;;;;;;;;;;;21.40;38.30;;;;;;5091581;28;19908;-63
2022/01/09 13:07:55;;;;;;;;;;;21.40;39.00;;;;;;5089178;28;19916;-63
2022/01/09 13:10:26;;;;;;;;;;;21.40;38.50;;;;;;5088122;28;19916;-63
2022/01/09 13:13:01;;;;;;;;;;;21.40;38.50;;;;;;5090246;28;20074;-64
2022/01/09 13:15:33;;;;;;;;;;;21.40;39.20;;;;;;5090378;28;19916;-64
2022/01/09 13:17:58;;;;;;;;;;;21.50;38.50;;;;;;5091097;28;19923;-64
2022/01/09 13:20:24;;;;;;;;;;;21.50;38.50;;;;;;5091059;28;20424;-63
2022/01/09 13:23:02;;;;;;;;;;;21.50;38.60;;;;;;5093689;28;19919;-62
2022/01/09 13:25:27;;;;;;;;;;;21.50;38.60;;;;;;5096807;28;20002;-62
2022/01/09 13:27:53;;;;;;;;;;;21.50;38.70;;;;;;5097818;28;20340;-62
2022/01/09 13:30:20;;;;;;;;;;;21.50;38.50;;;;;;5097857;28;19927;-62
2022/01/09 13:32:46;;;;;;;;;;;21.50;38.60;;;;;;5096637;28;19913;-62
2022/01/09 13:35:11;;;;;;;;;;;21.50;38.80;;;;;;5097560;28;19912;-62
2022/01/09 13:37:38;;;;;;;;;;;21.50;38.80;;;;;;5096963;28;19912;-62
2022/01/09 13:40:04;;;;;;;;;;;21.50;39.00;;;;;;5093666;28;20367;-62
2022/01/09 13:42:33;;;;;;;;;;;21.50;39.00;;;;;;5096208;28;19938;-62
2022/01/09 13:45:01;;;;;;;;;;;21.50;39.00;;;;;;5097673;28;20474;-62
2022/01/09 13:47:27;;;;;;;;;;;21.50;39.30;;;;;;5097937;28;20049;-62
2022/01/09 13:49:53;;;;;;;;;;;21.50;39.20;;;;;;5102816;27;20340;-62
2022/01/09 13:52:19;;;;;;;;;;;21.60;39.30;;;;;;5095733;28;20362;-62
2022/01/09 13:54:55;;;;;;;;;;;21.50;39.30;;;;;;5096880;28;19958;-62
2022/01/09 13:57:25;;;;;;;;;;;21.60;39.50;;;;;;5093700;28;19927;-63
2022/01/09 13:59:51;;;;;;;;;;;21.60;39.50;;;;;;5094853;28;20339;-63
2022/01/09 14:02:17;;;;;;;;;;;21.60;39.60;;;;;;5095401;28;19924;-63
2022/01/09 14:04:45;;;;;;;;;;;21.70;40.00;;;;;;5097482;28;19908;-63
2022/01/09 14:07:15;;;;;;;;;;;21.70;40.00;;;;;;5094494;28;19920;-64
2022/01/09 14:09:41;;;;;;;;;;;21.60;40.00;;;;;;5129946;27;19912;-63
2022/01/09 14:12:10;;;;;;;;;;;21.60;40.00;;;;;;5097623;28;19973;-63
2022/01/09 14:14:43;;;;;;;;;;;21.70;40.20;;;;;;5094928;28;19916;-64